Time;durP1;ratioP1;P1;durP2;ratioP2;P2;SDS_P1;SDS_P2;PMS_P1;PMS_P2;Temp;Humidity;BMP_temperature;BMP_pressure;BME280_temperature;BME280_humidity;BME280_pressure;Samples;Min_cycle;Max_cycle;Signal;HPM_P1;HPM_P2
2021/06/05 00:02:02;;;;;;;10.65;5.25;;;18.60;59.20;;;;;;5054731;28;20072;-72
2021/06/05 00:04:28;;;;;;;8.25;5.40;;;18.60;59.00;;;;;;5073446;28;20575;-72
2021/06/05 00:06:54;;;;;;;;;;;18.50;59.30;;;;;;5074207;28;20053;-72
2021/06/05 00:09:23;;;;;;;13.20;5.70;;;18.50;58.10;;;;;;5073382;28;19916;-72
2021/06/05 00:11:49;;;;;;;10.30;5.65;;;18.40;59.30;;;;;;5073631;28;20040;-72
2021/06/05 00:14:15;;;;;;;;;;;18.40;59.50;;;;;;5055749;28;20051;-72
2021/06/05 00:17:03;;;;;;;9.45;5.72;;;18.40;58.90;;;;;;5073468;28;19916;-72
2021/06/05 00:19:30;;;;;;;10.35;6.20;;;18.40;59.20;;;;;;5055273;28;20123;-72
2021/06/05 00:21:56;;;;;;;11.43;6.05;;;18.30;59.50;;;;;;5073096;28;20044;-72
2021/06/05 00:24:22;;;;;;;11.68;5.60;;;18.30;59.70;;;;;;5055122;28;20083;-72
2021/06/05 00:26:50;;;;;;;9.63;5.68;;;18.30;59.90;;;;;;5055397;28;20448;-72
2021/06/05 00:29:18;;;;;;;13.43;6.25;;;18.30;59.90;;;;;;5055258;28;20064;-72
2021/06/05 00:31:44;;;;;;;13.15;6.22;;;18.30;59.90;;;;;;5055310;28;20064;-72
2021/06/05 00:34:11;;;;;;;9.55;6.03;;;18.20;59.90;;;;;;5072898;28;20045;-72
2021/06/05 00:36:37;;;;;;;8.70;5.35;;;18.20;59.70;;;;;;5054936;28;20393;-72
2021/06/05 00:39:05;;;;;;;9.75;5.57;;;18.20;60.00;;;;;;5055041;28;20118;-72
2021/06/05 00:41:32;;;;;;;9.32;5.32;;;18.10;60.10;;;;;;5055190;28;20094;-72
2021/06/05 00:44:04;;;;;;;9.75;5.85;;;18.10;60.10;;;;;;5038224;28;20436;-72
2021/06/05 00:46:31;;;;;;;14.30;5.63;;;18.10;60.30;;;;;;5038329;28;20484;-72
2021/06/05 00:49:00;;;;;;;8.80;5.20;;;18.10;60.40;;;;;;5054889;28;20072;-72
2021/06/05 00:51:57;;;;;;;7.95;5.35;;;18.10;60.40;;;;;;5054881;28;20052;-72
2021/06/05 00:54:24;;;;;;;11.23;6.80;;;18.10;60.40;;;;;;5072594;28;20041;-72
2021/06/05 00:56:59;;;;;;;9.35;5.80;;;18.00;60.50;;;;;;5073109;28;20043;-72
2021/06/05 00:59:26;;;;;;;10.88;5.90;;;17.90;60.80;;;;;;5054754;28;20200;-72
2021/06/05 01:01:52;;;;;;;10.30;5.82;;;17.90;60.40;;;;;;5054610;28;20485;-72
2021/06/05 01:04:20;;;;;;;10.50;5.93;;;17.90;60.40;;;;;;5054704;28;20045;-72
2021/06/05 01:07:26;;;;;;;11.63;6.25;;;17.90;61.00;;;;;;5038283;28;20080;-72
2021/06/05 01:10:31;;;;;;;11.90;6.28;;;17.80;60.80;;;;;;5054464;28;20033;-72
2021/06/05 01:13:53;;;;;;;10.43;6.00;;;17.80;60.80;;;;;;5057808;28;20046;-72
2021/06/05 01:16:23;;;;;;;8.60;5.50;;;17.70;61.00;;;;;;5061141;28;20071;-72
2021/06/05 01:19:29;;;;;;;8.25;5.57;;;17.70;61.40;;;;;;5061193;28;20044;-72
2021/06/05 01:22:52;;;;;;;11.80;5.68;;;17.70;61.70;;;;;;5079597;28;20097;-72
2021/06/05 01:26:15;;;;;;;14.93;6.32;;;17.70;61.50;;;;;;5060931;28;20041;-72
2021/06/05 01:29:06;;;;;;;9.60;5.55;;;17.60;61.50;;;;;;5079163;28;20432;-72
2021/06/05 01:31:41;;;;;;;12.18;5.88;;;17.60;61.90;;;;;;5079509;28;20431;-72
2021/06/05 01:34:08;;;;;;;9.82;5.30;;;17.60;62.00;;;;;;5061198;28;20044;-72
2021/06/05 01:36:42;;;;;;;10.07;5.47;;;17.50;62.20;;;;;;5061184;28;20062;-72
2021/06/05 01:39:13;;;;;;;10.82;5.72;;;17.50;62.30;;;;;;5060896;28;20052;-72
2021/06/05 01:41:43;;;;;;;10.88;5.57;;;17.50;62.20;;;;;;5061012;28;20036;-72
2021/06/05 01:44:11;;;;;;;13.40;5.75;;;17.50;62.30;;;;;;5060781;28;20451;-72
2021/06/05 01:46:45;;;;;;;14.63;6.43;;;17.40;62.10;;;;;;5061078;28;20079;-72
2021/06/05 01:49:12;;;;;;;9.98;6.40;;;17.50;62.40;;;;;;5060833;28;20464;-72
2021/06/05 01:52:02;;;;;;;10.95;6.53;;;17.40;62.30;;;;;;5061088;28;20037;-72
2021/06/05 01:55:07;;;;;;;12.40;6.00;;;17.40;62.30;;;;;;5060772;28;20056;-72
2021/06/05 01:57:36;;;;;;;12.30;6.07;;;17.40;62.20;;;;;;5061012;28;20071;-72
2021/06/05 02:00:27;;;;;;;8.57;5.68;;;17.30;62.60;;;;;;5060763;28;20140;-72
2021/06/05 02:02:55;;;;;;;9.25;5.50;;;17.30;62.50;;;;;;5060950;28;20336;-72
2021/06/05 02:05:26;;;;;;;21.70;6.45;;;17.30;62.80;;;;;;5060655;28;20052;-72
2021/06/05 02:07:53;;;;;;;10.93;5.70;;;17.30;62.80;;;;;;5060764;28;20456;-72
2021/06/05 02:10:26;;;;;;;12.38;6.20;;;17.20;62.80;;;;;;5060630;28;20033;-72
2021/06/05 02:12:54;;;;;;;7.88;5.53;;;17.20;62.90;;;;;;5044103;28;20039;-72
2021/06/05 02:15:52;;;;;;;10.77;7.32;;;17.20;62.90;;;;;;5060727;28;20572;-72
2021/06/05 02:18:41;;;;;;;9.02;5.70;;;17.10;62.70;;;;;;5060584;28;20041;-72
2021/06/05 02:21:29;;;;;;;10.05;5.70;;;17.00;62.80;;;;;;5060796;28;20055;-72
2021/06/05 02:24:35;;;;;;;11.23;5.60;;;16.80;62.80;;;;;;5058878;28;20035;-71
2021/06/05 02:27:03;;;;;;;12.50;5.75;;;16.70;63.20;;;;;;5075809;28;20468;-72
2021/06/05 02:29:36;;;;;;;8.05;5.15;;;16.50;63.50;;;;;;5057407;28;20036;-72
2021/06/05 02:32:25;;;;;;;9.20;5.65;;;16.60;63.50;;;;;;5040840;28;20051;-72
2021/06/05 02:34:54;;;;;;;12.02;5.60;;;16.50;63.50;;;;;;5075157;28;20037;-72
2021/06/05 02:37:25;;;;;;;11.52;5.80;;;16.60;63.30;;;;;;5057483;28;20140;-72
2021/06/05 02:40:14;;;;;;;8.82;5.30;;;16.60;63.30;;;;;;5075033;28;20447;-72
2021/06/05 02:42:41;;;;;;;8.25;5.55;;;16.60;63.30;;;;;;5057145;28;20119;-72
2021/06/05 02:45:31;;;;;;;9.48;5.20;;;16.60;62.80;;;;;;5056956;28;20060;-72
2021/06/05 02:48:01;;;;;;;13.85;6.60;;;16.50;63.70;;;;;;5075099;28;20493;-72
2021/06/05 02:50:49;;;;;;;14.13;7.07;;;16.50;63.80;;;;;;5056934;28;20037;-72
2021/06/05 02:53:17;;;;;;;9.13;5.97;;;16.40;63.90;;;;;;5054614;28;20102;-72
2021/06/05 02:55:45;;;;;;;10.25;5.95;;;16.40;63.90;;;;;;5057036;28;20047;-72
2021/06/05 02:58:13;;;;;;;9.30;6.25;;;16.40;64.00;;;;;;5056969;28;20037;-72
2021/06/05 03:01:00;;;;;;;8.65;5.55;;;16.40;64.10;;;;;;5057022;28;20045;-72
2021/06/05 03:03:26;;;;;;;13.07;5.75;;;16.40;64.00;;;;;;5073471;28;20119;-72
2021/06/05 03:05:53;;;;;;;11.65;5.55;;;16.40;64.10;;;;;;5040064;28;20040;-72
2021/06/05 03:08:26;;;;;;;9.20;6.00;;;16.40;64.40;;;;;;5056810;28;20044;-72
2021/06/05 03:10:53;;;;;;;9.48;5.55;;;16.40;64.40;;;;;;5056595;28;20592;-72
2021/06/05 03:13:20;;;;;;;8.27;5.47;;;16.30;65.50;;;;;;5074531;28;20120;-72
2021/06/05 03:15:48;;;;;;;9.55;5.40;;;16.30;64.40;;;;;;5056717;28;20055;-72
2021/06/05 03:18:17;;;;;;;8.95;5.28;;;16.30;64.30;;;;;;5056612;28;20505;-72
2021/06/05 03:20:46;;;;;;;10.57;5.88;;;16.30;64.50;;;;;;5056303;28;20076;-72
2021/06/05 03:23:17;;;;;;;12.10;5.38;;;16.30;64.50;;;;;;5056648;28;20047;-72
2021/06/05 03:25:46;;;;;;;9.20;5.65;;;16.30;64.70;;;;;;5056306;28;20041;-72
2021/06/05 03:28:14;;;;;;;10.50;5.90;;;16.30;64.70;;;;;;5074257;28;20074;-71
2021/06/05 03:30:40;;;;;;;10.02;7.03;;;16.30;64.90;;;;;;5056081;28;20085;-72
2021/06/05 03:33:07;;;;;;;7.97;5.35;;;16.30;64.80;;;;;;5056402;28;20051;-72
2021/06/05 03:35:34;;;;;;;8.95;5.60;;;16.30;64.20;;;;;;5056156;28;20053;-72
2021/06/05 03:38:01;;;;;;;9.98;5.75;;;16.30;64.90;;;;;;5073865;28;20044;-72
2021/06/05 03:40:31;;;;;;;10.90;5.85;;;16.30;65.00;;;;;;5056055;28;20054;-72
2021/06/05 03:42:59;;;;;;;8.50;6.20;;;16.40;65.00;;;;;;5056197;28;20044;-72
2021/06/05 03:45:25;;;;;;;10.43;5.95;;;16.40;65.10;;;;;;5073700;28;20055;-72
2021/06/05 03:47:54;;;;;;;;;;;16.50;65.20;;;;;;5074274;28;20039;-72
2021/06/05 03:50:43;;;;;;;9.88;6.10;;;16.50;64.20;;;;;;5073646;28;19913;-72
2021/06/05 03:53:11;;;;;;;9.35;6.20;;;16.60;64.50;;;;;;5055633;28;20036;-72
2021/06/05 03:55:37;;;;;;;13.10;6.45;;;16.60;64.60;;;;;;5055848;28;20106;-72
2021/06/05 03:58:04;;;;;;;11.10;6.05;;;16.70;64.70;;;;;;5073526;28;20078;-72
2021/06/05 04:00:36;;;;;;;10.30;6.97;;;16.70;64.90;;;;;;5055705;28;20040;-72
2021/06/05 04:03:05;;;;;;;10.27;6.32;;;16.80;64.90;;;;;;5039087;28;20044;-71
2021/06/05 04:05:33;;;;;;;14.18;7.03;;;16.80;64.90;;;;;;5055602;28;20505;-72
2021/06/05 04:07:59;;;;;;;10.38;6.85;;;16.90;64.80;;;;;;5038986;28;20044;-72
2021/06/05 04:10:27;;;;;;;10.07;6.47;;;16.90;64.90;;;;;;5055322;28;20493;-72
2021/06/05 04:12:57;;;;;;;11.20;6.82;;;17.00;64.90;;;;;;5073409;28;20553;-72
2021/06/05 04:15:26;;;;;;;10.48;6.50;;;17.00;65.00;;;;;;5055968;28;20439;-72
2021/06/05 04:18:14;;;;;;;9.20;6.30;;;17.00;65.00;;;;;;5055376;28;20037;-72
2021/06/05 04:20:42;;;;;;;8.85;6.05;;;17.00;65.00;;;;;;5055278;28;20048;-71
2021/06/05 04:23:10;;;;;;;11.13;6.47;;;17.00;65.10;;;;;;5073570;28;20041;-72
2021/06/05 04:25:37;;;;;;;10.38;6.10;;;17.00;65.30;;;;;;5055384;28;20040;-72
2021/06/05 04:28:07;;;;;;;14.20;5.40;;;17.00;65.60;;;;;;5038610;28;20094;-72
2021/06/05 04:30:35;;;;;;;14.13;5.70;;;17.00;65.70;;;;;;5071957;28;20054;-72
2021/06/05 04:33:02;;;;;;;12.23;5.63;;;17.00;65.70;;;;;;5055191;28;20079;-72
2021/06/05 04:35:29;;;;;;;14.13;5.97;;;17.00;65.80;;;;;;5055046;28;20076;-72
2021/06/05 04:37:56;;;;;;;8.82;5.20;;;17.00;65.90;;;;;;5071636;28;20577;-72
2021/06/05 04:40:24;;;;;;;10.43;5.60;;;17.10;66.00;;;;;;5038347;28;20048;-72
2021/06/05 04:42:51;;;;;;;9.43;6.43;;;17.00;66.00;;;;;;5038390;28;20043;-72
2021/06/05 04:45:19;;;;;;;11.32;5.97;;;17.00;66.10;;;;;;5055359;28;20036;-72
2021/06/05 04:47:46;;;;;;;8.35;6.13;;;17.10;66.30;;;;;;5054315;28;20037;-72
2021/06/05 04:50:16;;;;;;;12.05;5.13;;;17.10;66.30;;;;;;5072696;28;20041;-72
2021/06/05 04:52:42;;;;;;;11.35;5.35;;;17.00;66.30;;;;;;5072778;28;20033;-72
2021/06/05 04:55:09;;;;;;;;;;;17.00;66.30;;;;;;5053217;28;20525;-71
2021/06/05 04:57:36;;;;;;;10.65;6.22;;;17.00;65.60;;;;;;5072681;28;20431;-71
2021/06/05 05:00:08;;;;;;;10.73;5.45;;;17.00;66.00;;;;;;5054630;28;20047;-71
2021/06/05 05:02:35;;;;;;;9.50;5.47;;;17.00;66.20;;;;;;5072834;28;20051;-72
2021/06/05 05:05:03;;;;;;;7.90;5.32;;;16.90;66.10;;;;;;5054514;28;20040;-72
2021/06/05 05:10:06;;;;;;;11.27;5.85;;;16.90;65.80;;;;;;5071913;28;20114;-72
2021/06/05 05:12:32;;;;;;;9.75;5.93;;;17.00;65.60;;;;;;5054139;28;20044;-72
2021/06/05 05:14:58;;;;;;;;;;;17.00;65.80;;;;;;5055117;28;20396;-72
2021/06/05 05:17:24;;;;;;;9.30;6.20;;;17.00;65.20;;;;;;5054795;28;19917;-72
2021/06/05 05:19:50;;;;;;;;;;;17.00;65.90;;;;;;5072944;28;20041;-72
2021/06/05 05:22:17;;;;;;;12.63;7.22;;;16.90;65.40;;;;;;5072912;28;19955;-72
2021/06/05 05:24:43;;;;;;;9.75;6.55;;;16.90;66.50;;;;;;5072228;28;20429;-72
2021/06/05 05:27:09;;;;;;;15.20;7.00;;;17.00;66.60;;;;;;5072873;28;20044;-72
2021/06/05 05:29:35;;;;;;;24.70;7.55;;;17.00;66.80;;;;;;5072344;28;20464;-72
2021/06/05 05:32:02;;;;;;;;;;;17.10;66.90;;;;;;5055266;28;20044;-72
2021/06/05 05:34:28;;;;;;;14.75;8.63;;;17.10;65.30;;;;;;5072256;28;19947;-71
2021/06/05 05:36:54;;;;;;;;;;;17.20;66.40;;;;;;5054912;28;20048;-72
2021/06/05 05:39:20;;;;;;;10.25;7.03;;;17.30;65.30;;;;;;5037602;28;19916;-72
2021/06/05 05:41:49;;;;;;;32.33;8.65;;;17.40;66.20;;;;;;5072648;28;20040;-72
2021/06/05 05:44:17;;;;;;;14.95;8.48;;;17.50;66.20;;;;;;5037894;28;20036;-72
2021/06/05 05:46:43;;;;;;;18.80;9.88;;;17.60;66.30;;;;;;5054377;28;20125;-72
2021/06/05 05:49:09;;;;;;;;;;;17.80;66.50;;;;;;5054745;28;20551;-73
2021/06/05 05:51:35;;;;;;;14.05;9.13;;;17.90;65.40;;;;;;5072447;28;19924;-72
2021/06/05 05:54:02;;;;;;;14.77;8.23;;;18.10;66.00;;;;;;5037418;28;20520;-72
2021/06/05 05:56:30;;;;;;;12.45;8.25;;;18.20;65.90;;;;;;5054348;28;20048;-72
2021/06/05 05:58:57;;;;;;;12.55;8.15;;;18.30;65.50;;;;;;5054011;28;20037;-72
2021/06/05 06:01:25;;;;;;;14.30;8.75;;;18.50;65.00;;;;;;5057953;28;20044;-72
2021/06/05 06:03:55;;;;;;;14.73;8.85;;;18.50;66.00;;;;;;5057962;28;20079;-72
2021/06/05 06:06:24;;;;;;;17.15;8.55;;;18.60;65.70;;;;;;5075956;28;20053;-72
2021/06/05 06:08:50;;;;;;;14.70;9.65;;;18.70;65.30;;;;;;5057801;28;20156;-72
2021/06/05 06:11:16;;;;;;;16.95;9.50;;;18.90;65.50;;;;;;5057815;28;20409;-72
2021/06/05 06:13:43;;;;;;;14.05;10.00;;;19.00;65.20;;;;;;5057725;28;20048;-72
2021/06/05 06:16:12;;;;;;;18.08;9.50;;;19.10;64.50;;;;;;5040845;28;20060;-72
2021/06/05 06:18:40;;;;;;;21.30;10.80;;;19.20;65.00;;;;;;5057513;28;20040;-72
2021/06/05 06:21:09;;;;;;;12.50;7.95;;;19.30;64.70;;;;;;5057693;28;20041;-72
2021/06/05 06:23:39;;;;;;;13.43;8.52;;;19.50;64.20;;;;;;5057440;28;20032;-72
2021/06/05 06:26:40;;;;;;;14.68;9.32;;;19.70;63.80;;;;;;5057799;28;20552;-72
2021/06/05 06:29:12;;;;;;;13.60;8.57;;;19.80;63.40;;;;;;5040914;28;20124;-72
2021/06/05 06:31:40;;;;;;;15.48;9.18;;;19.90;62.60;;;;;;5058456;28;20048;-72
2021/06/05 06:34:07;;;;;;;12.63;7.72;;;20.10;62.20;;;;;;5040779;28;20032;-72
2021/06/05 06:36:43;;;;;;;16.52;8.48;;;20.30;61.70;;;;;;5057473;28;20079;-72
2021/06/05 06:39:13;;;;;;;12.05;7.97;;;20.40;60.60;;;;;;5040483;28;20448;-72
2021/06/05 06:41:41;;;;;;;12.77;7.57;;;20.40;59.90;;;;;;5057457;28;20041;-72
2021/06/05 06:44:08;;;;;;;12.70;8.02;;;20.50;60.10;;;;;;5057241;28;20037;-72
2021/06/05 06:46:53;;;;;;;17.77;8.40;;;20.60;59.40;;;;;;5057273;28;20434;-72
2021/06/05 06:49:22;;;;;;;10.30;7.60;;;20.80;60.20;;;;;;5056991;28;20041;-72
2021/06/05 06:51:49;;;;;;;11.95;7.57;;;21.00;59.70;;;;;;5057301;28;20052;-72
2021/06/05 06:54:16;;;;;;;15.15;7.53;;;21.00;59.90;;;;;;5056958;28;20056;-72
2021/06/05 06:56:43;;;;;;;14.65;7.55;;;21.20;59.70;;;;;;5074818;28;20048;-73
2021/06/05 06:59:11;;;;;;;16.10;7.63;;;21.30;58.70;;;;;;5056726;28;20045;-72
2021/06/05 07:01:38;;;;;;;12.00;7.30;;;21.40;58.30;;;;;;5056999;28;20106;-72
2021/06/05 07:04:05;;;;;;;11.57;6.88;;;21.50;58.10;;;;;;5074691;28;20042;-72
2021/06/05 07:06:33;;;;;;;12.02;7.10;;;21.70;57.60;;;;;;5074874;28;20071;-73
2021/06/05 07:08:59;;;;;;;11.77;6.38;;;21.80;57.00;;;;;;5056751;28;20036;-73
2021/06/05 07:11:45;;;;;;;10.57;6.32;;;22.00;56.30;;;;;;5056273;28;20123;-72
2021/06/05 07:14:12;;;;;;;9.83;6.30;;;22.20;55.70;;;;;;5074598;28;20032;-74
2021/06/05 07:16:38;;;;;;;;;;;22.30;55.40;;;;;;5075411;28;20045;-73
2021/06/05 07:19:07;;;;;;;8.52;6.43;;;22.40;55.50;;;;;;5074661;28;20332;-72
2021/06/05 07:21:33;;;;;;;14.57;6.50;;;22.50;55.20;;;;;;5056815;28;20103;-72
2021/06/05 07:23:59;;;;;;;10.48;6.38;;;22.70;55.20;;;;;;5074358;28;20476;-72
2021/06/05 07:26:28;;;;;;;10.55;6.10;;;22.80;54.90;;;;;;5039794;28;20404;-73
2021/06/05 07:29:13;;;;;;;10.65;6.32;;;22.90;54.70;;;;;;5056293;28;20090;-72
2021/06/05 07:32:04;;;;;;;10.63;6.25;;;23.00;54.30;;;;;;5074535;28;20048;-72
2021/06/05 07:34:33;;;;;;;9.82;6.35;;;23.10;53.90;;;;;;5056722;28;20078;-72
2021/06/05 07:37:21;;;;;;;11.13;6.28;;;23.20;53.80;;;;;;5056667;28;20094;-72
2021/06/05 07:39:48;;;;;;;9.32;6.07;;;23.40;54.10;;;;;;5056096;28;20036;-73
2021/06/05 07:42:15;;;;;;;11.70;6.18;;;23.40;53.40;;;;;;5074262;28;20115;-72
2021/06/05 07:44:41;;;;;;;11.13;5.70;;;23.40;53.70;;;;;;5039284;28;20063;-72
2021/06/05 07:47:08;;;;;;;13.27;6.40;;;23.50;52.50;;;;;;5073811;28;20048;-72
2021/06/05 07:49:38;;;;;;;12.45;5.88;;;23.60;53.00;;;;;;5055890;28;20041;-72
2021/06/05 07:52:10;;;;;;;12.32;6.75;;;23.70;52.50;;;;;;5056169;28;20051;-72
2021/06/05 07:54:36;;;;;;;29.30;19.10;;;23.90;52.10;;;;;;5055767;28;20068;-72
2021/06/05 07:57:03;;;;;;;;;;;24.00;51.50;;;;;;5074684;28;20424;-72
2021/06/05 07:59:29;;;;;;;21.10;17.17;;;24.00;51.70;;;;;;5072206;28;20399;-72
2021/06/05 08:01:56;;;;;;;12.75;8.57;;;24.10;50.90;;;;;;5074023;28;20495;-72
2021/06/05 08:04:23;;;;;;;44.83;26.30;;;24.30;50.80;;;;;;5055673;28;20393;-72
2021/06/05 08:06:52;;;;;;;66.03;42.17;;;24.40;50.60;;;;;;5039081;28;20513;-72
2021/06/05 08:09:18;;;;;;;37.22;21.65;;;24.50;50.20;;;;;;5073454;28;20071;-72
2021/06/05 08:11:44;;;;;;;9.50;5.82;;;24.80;50.30;;;;;;5083481;28;20036;-73
2021/06/05 08:14:11;;;;;;;9.93;5.55;;;24.90;49.60;;;;;;5093489;28;20043;-72
2021/06/05 08:16:37;;;;;;;11.40;6.90;;;25.00;49.10;;;;;;5075305;28;20047;-73
2021/06/05 08:19:24;;;;;;;10.88;5.80;;;25.00;47.70;;;;;;5075617;28;20036;-73
2021/06/05 08:21:50;;;;;;;8.80;6.00;;;25.20;47.50;;;;;;5074500;28;20040;-72
2021/06/05 08:24:18;;;;;;;29.98;16.58;;;25.30;46.90;;;;;;5092982;28;20032;-72
2021/06/05 08:26:46;;;;;;;19.85;11.95;;;25.40;46.80;;;;;;5093421;28;20040;-72
2021/06/05 08:29:13;;;;;;;11.38;5.38;;;25.50;46.10;;;;;;5075215;28;20051;-73
2021/06/05 08:31:40;;;;;;;11.90;5.32;;;25.50;45.30;;;;;;5075351;28;20051;-72
2021/06/05 08:34:06;;;;;;;8.63;5.30;;;25.70;45.90;;;;;;5075157;28;20036;-72
2021/06/05 08:36:35;;;;;;;10.05;6.20;;;25.70;44.30;;;;;;5058436;28;20401;-72
2021/06/05 08:39:06;;;;;;;8.98;5.78;;;25.80;45.30;;;;;;5058272;28;20492;-73
2021/06/05 08:41:43;;;;;;;7.88;5.47;;;26.00;45.00;;;;;;5075322;28;20098;-73
2021/06/05 08:44:47;;;;;;;8.73;5.28;;;26.10;44.20;;;;;;5075067;28;20119;-73
2021/06/05 08:47:28;;;;;;;9.43;5.57;;;26.20;44.40;;;;;;5075244;28;20040;-72
2021/06/05 08:49:55;;;;;;;13.90;6.05;;;26.30;43.90;;;;;;5074901;28;20090;-72
2021/06/05 08:52:36;;;;;;;14.70;6.30;;;26.40;44.70;;;;;;5075178;28;20233;-72
2021/06/05 08:55:19;;;;;;;11.18;7.60;;;26.50;44.60;;;;;;5092795;28;20102;-73
2021/06/05 08:58:44;;;;;;;10.57;7.30;;;26.60;43.90;;;;;;5074974;28;20404;-73
2021/06/05 09:01:47;;;;;;;17.20;8.55;;;26.70;44.20;;;;;;5093038;28;20508;-73
2021/06/05 09:04:19;;;;;;;22.73;10.60;;;26.80;43.60;;;;;;5092789;28;20044;-73
2021/06/05 09:07:08;;;;;;;84.55;34.22;;;26.90;43.50;;;;;;5074979;28;20063;-72
2021/06/05 09:09:40;;;;;;;10.73;5.63;;;27.00;44.60;;;;;;5074785;28;20043;-72
2021/06/05 09:12:09;;;;;;;8.60;5.80;;;27.10;43.40;;;;;;5074932;28;20123;-72
2021/06/05 09:14:37;;;;;;;11.88;6.63;;;27.10;42.60;;;;;;5074707;28;20060;-72
2021/06/05 09:18:01;;;;;;;10.05;5.38;;;27.40;42.80;;;;;;5092664;28;20043;-72
2021/06/05 09:20:39;;;;;;;9.45;5.43;;;27.70;42.30;;;;;;5092596;28;20052;-73
2021/06/05 09:23:34;;;;;;;22.25;12.77;;;28.00;41.10;;;;;;5074745;28;20036;-73
2021/06/05 09:26:28;;;;;;;7.45;4.63;;;28.60;40.70;;;;;;5074901;28;20110;-73
2021/06/05 09:29:33;;;;;;;9.70;4.47;;;29.30;38.70;;;;;;5058008;28;20071;-72
2021/06/05 09:32:08;;;;;;;7.43;5.30;;;30.00;37.60;;;;;;5074597;28;20036;-72
2021/06/05 09:35:01;;;;;;;6.93;4.38;;;30.80;35.10;;;;;;5077164;28;20539;-73
2021/06/05 09:37:54;;;;;;;8.50;5.07;;;31.30;35.00;;;;;;5078508;28;20106;-72
2021/06/05 09:40:22;;;;;;;49.85;24.02;;;31.80;33.40;;;;;;5096589;28;20064;-73
2021/06/05 09:43:08;;;;;;;11.35;4.75;;;32.30;33.60;;;;;;5096562;28;20515;-73
2021/06/05 09:46:12;;;;;;;12.48;6.40;;;33.10;33.00;;;;;;5096481;28;20082;-73
2021/06/05 09:48:47;;;;;;;13.77;4.95;;;33.50;32.20;;;;;;5082720;28;20040;-73
2021/06/05 09:51:38;;;;;;;17.20;7.55;;;34.00;30.80;;;;;;5076306;28;20045;-73
2021/06/05 09:54:08;;;;;;;10.75;4.93;;;34.80;30.80;;;;;;5067973;28;20488;-73
2021/06/05 09:56:56;;;;;;;7.03;4.70;;;35.30;28.90;;;;;;5078394;28;20040;-73
2021/06/05 09:59:41;;;;;;;11.50;5.30;;;35.90;27.90;;;;;;5096072;28;20097;-73
2021/06/05 10:02:26;;;;;;;13.68;6.75;;;36.60;27.50;;;;;;5078259;28;20047;-73
2021/06/05 10:05:30;;;;;;;9.13;5.18;;;36.90;26.10;;;;;;5096108;28;20036;-72
2021/06/05 10:08:18;;;;;;;16.40;6.57;;;37.60;27.00;;;;;;5096093;28;21824;-73
2021/06/05 10:10:48;;;;;;;8.13;4.38;;;37.90;25.20;;;;;;5080453;28;20040;-73
2021/06/05 10:13:23;;;;;;;10.38;5.65;;;38.40;24.90;;;;;;5077693;28;20036;-73
2021/06/05 10:16:08;;;;;;;8.70;5.30;;;39.30;24.40;;;;;;5077763;28;20048;-73
2021/06/05 10:18:59;;;;;;;7.47;3.90;;;40.20;24.90;;;;;;5090746;28;20036;-73
2021/06/05 10:21:47;;;;;;;7.32;4.32;;;40.80;23.60;;;;;;5077782;28;20518;-73
2021/06/05 10:24:50;;;;;;;5.15;3.30;;;41.60;23.20;;;;;;5077253;28;20149;-73
2021/06/05 10:27:37;;;;;;;17.20;7.43;;;42.10;22.10;;;;;;5094323;28;20043;-73
2021/06/05 10:30:41;;;;;;;6.57;4.32;;;42.70;21.40;;;;;;5077176;28;20485;-73
2021/06/05 10:33:33;;;;;;;6.65;3.70;;;43.10;21.30;;;;;;5087462;28;20432;-73
2021/06/05 10:36:04;;;;;;;8.48;4.25;;;43.60;19.90;;;;;;5075501;28;20052;-73
2021/06/05 10:39:02;;;;;;;7.32;4.20;;;44.10;19.90;;;;;;5077115;28;20036;-73
2021/06/05 10:41:33;;;;;;;8.77;4.00;;;44.60;19.40;;;;;;5094595;28;20044;-73
2021/06/05 10:44:01;;;;;;;9.65;4.68;;;45.10;19.10;;;;;;5077502;28;20068;-73
2021/06/05 10:47:09;;;;;;;8.82;4.10;;;45.50;18.60;;;;;;5076341;28;20040;-73
2021/06/05 10:50:12;;;;;;;31.35;12.63;;;45.50;18.40;;;;;;5095096;28;20036;-73
2021/06/05 10:53:35;;;;;;;10.85;6.68;;;45.20;19.10;;;;;;5075352;28;20040;-73
2021/06/05 10:56:19;;;;;;;6.65;4.07;;;45.10;18.90;;;;;;5086138;28;20051;-73
2021/06/05 10:59:05;;;;;;;10.95;6.75;;;45.30;18.50;;;;;;5057473;28;20412;-73
2021/06/05 11:01:50;;;;;;;5.50;3.97;;;45.30;18.10;;;;;;5077182;28;20036;-73
2021/06/05 11:04:53;;;;;;;8.43;5.40;;;44.90;17.20;;;;;;5095398;28;20058;-73
2021/06/05 11:07:38;;;;;;;1568.13;280.48;;;45.00;18.10;;;;;;5093665;28;20100;-84
2021/06/05 11:10:07;;;;;;;9.48;5.82;;;45.40;17.80;;;;;;5094643;28;20035;-75
2021/06/05 11:12:33;;;;;;;9.88;4.95;;;45.60;17.40;;;;;;5061466;28;20036;-78
2021/06/05 11:14:59;;;;;;;8.32;4.20;;;46.00;17.30;;;;;;5088854;28;20044;-76
2021/06/05 11:18:22;;;;;;;7.25;4.43;;;46.60;17.00;;;;;;5094458;28;20046;-75
2021/06/05 11:20:48;;;;;;;8.65;5.13;;;47.20;17.20;;;;;;5094316;28;20405;-76
2021/06/05 11:23:17;;;;;;;8.73;5.72;;;47.50;16.80;;;;;;5107029;28;20115;-75
2021/06/05 11:25:49;;;;;;;6.75;4.20;;;47.60;16.00;;;;;;5079821;28;20041;-76
2021/06/05 11:28:53;;;;;;;8.07;4.60;;;47.80;16.20;;;;;;5074711;28;20044;-75
2021/06/05 11:31:58;;;;;;;5.68;4.50;;;48.60;16.20;;;;;;5091841;28;20048;-76
2021/06/05 11:34:43;;;;;;;9.43;4.40;;;49.20;16.00;;;;;;5069433;28;20032;-76
2021/06/05 11:37:15;;;;;;;6.28;5.03;;;49.70;15.40;;;;;;5094720;28;20109;-75
2021/06/05 11:39:53;;;;;;;6.18;4.32;;;50.00;15.10;;;;;;5097340;28;20035;-75
2021/06/05 11:42:19;;;;;;;5.57;4.18;;;50.20;14.80;;;;;;5075828;28;20216;-76
2021/06/05 11:45:26;;;;;;;7.97;5.03;;;50.20;14.40;;;;;;5096103;28;20096;-75
2021/06/05 11:47:53;;;;;;;6.18;3.95;;;50.40;14.20;;;;;;5074014;28;20109;-76
2021/06/05 11:50:38;;;;;;;9.18;5.43;;;50.40;13.50;;;;;;5073716;28;20032;-76
2021/06/05 11:53:42;;;;;;;6.57;4.20;;;49.90;14.40;;;;;;5093950;28;20037;-76
2021/06/05 11:56:09;;;;;;;8.23;5.20;;;49.90;14.80;;;;;;5075953;28;20079;-75
2021/06/05 11:58:40;;;;;;;5.10;4.00;;;50.30;13.80;;;;;;5086066;28;20043;-75
2021/06/05 12:01:27;;;;;;;8.38;6.22;;;50.40;14.00;;;;;;5070781;28;20122;-76
2021/06/05 12:04:15;;;;;;;20.77;7.13;;;50.80;14.10;;;;;;5066541;28;20047;-75
2021/06/05 12:07:00;;;;;;;7.65;4.57;;;51.30;14.40;;;;;;5075324;28;20063;-76
2021/06/05 12:09:26;;;;;;;6.00;4.70;;;51.80;13.80;;;;;;5090246;28;20462;-76
2021/06/05 12:12:13;;;;;;;9.32;4.78;;;52.20;13.60;;;;;;5075687;28;20041;-75
2021/06/05 12:15:16;;;;;;;5.25;4.35;;;51.10;14.10;;;;;;5074564;28;20263;-76
2021/06/05 12:17:44;;;;;;;5.72;4.35;;;50.90;13.70;;;;;;5093383;28;20373;-75
2021/06/05 12:20:36;;;;;;;5.63;4.50;;;50.60;12.80;;;;;;5078570;28;20037;-75
2021/06/05 12:23:41;;;;;;;7.40;4.55;;;48.90;14.60;;;;;;5074899;28;20040;-78
2021/06/05 12:26:29;;;;;;;5.32;3.78;;;46.80;15.90;;;;;;5075481;28;20440;-77
2021/06/05 12:29:19;;;;;;;7.35;3.67;;;44.80;17.30;;;;;;5093443;28;20048;-76
2021/06/05 12:31:47;;;;;;;10.07;3.70;;;42.60;19.30;;;;;;5075648;28;20040;-75
2021/06/05 12:34:37;;;;;;;5.00;3.42;;;41.00;20.90;;;;;;5058686;28;20496;-75
2021/06/05 12:37:30;;;;;;;5.00;3.00;;;38.70;21.80;;;;;;5093085;28;20051;-76
2021/06/05 12:40:18;;;;;;;7.10;3.30;;;37.10;23.60;;;;;;5087371;28;20048;-76
2021/06/05 12:42:46;;;;;;;6.10;3.88;;;36.40;24.80;;;;;;5074970;28;20139;-76
2021/06/05 15:31:19;;;;;;;19.02;5.35;;;32.20;31.20;;;;;;5080928;27;20110;-76
2021/06/05 15:33:47;;;;;;;6.57;3.60;;;32.00;32.60;;;;;;5070646;28;20124;-76
2021/06/05 15:36:13;;;;;;;5.90;3.95;;;31.80;32.70;;;;;;5059437;28;20443;-75
2021/06/05 15:38:40;;;;;;;15.20;4.72;;;31.70;33.20;;;;;;5075927;28;20074;-76
2021/06/05 15:41:07;;;;;;;6.68;3.78;;;31.70;33.70;;;;;;5093559;28;20094;-74
2021/06/05 15:43:38;;;;;;;13.00;4.47;;;31.70;33.60;;;;;;5076078;28;20032;-75
2021/06/05 15:46:07;;;;;;;7.70;3.95;;;31.90;34.20;;;;;;5093501;28;20091;-74
2021/06/05 15:48:55;;;;;;;7.97;3.72;;;31.90;34.30;;;;;;5074911;28;20093;-76
2021/06/05 15:51:48;;;;;;;6.85;4.07;;;31.90;33.80;;;;;;5075897;28;20373;-76
2021/06/05 15:54:22;;;;;;;6.05;3.95;;;31.90;33.60;;;;;;5075164;28;20377;-75
2021/06/05 15:56:48;;;;;;;6.35;3.75;;;32.00;34.70;;;;;;5075399;28;20119;-76
2021/06/05 15:59:15;;;;;;;6.90;4.10;;;32.00;34.60;;;;;;5058073;28;20135;-76
2021/06/05 16:01:44;;;;;;;6.57;4.15;;;32.00;35.00;;;;;;5075686;28;20492;-76
2021/06/05 16:04:16;;;;;;;11.00;4.10;;;31.90;35.20;;;;;;5075768;28;20104;-75
2021/06/05 16:06:44;;;;;;;7.80;4.18;;;31.90;35.80;;;;;;5075937;28;20040;-75
2021/06/05 16:09:13;;;;;;;7.70;3.97;;;31.90;34.90;;;;;;5075420;28;20130;-75
2021/06/05 16:11:42;;;;;;;15.02;4.53;;;31.80;35.90;;;;;;5075563;28;20079;-76
2021/06/05 16:14:09;;;;;;;10.60;3.55;;;31.70;36.50;;;;;;5075334;28;20447;-76
2021/06/05 16:16:37;;;;;;;9.98;4.30;;;31.70;35.90;;;;;;5093635;28;20116;-76